PWSweather.com
Personal Weather Stations
Station Observations
OBERT
Bodensee Hinterland, OberteuringenDE

Bodensee HinterlandOberteuringenDE

Lat: 47.714675, Lon: 9.44447

Elevation: 1427

Station Type: Wunder Weather Station

High Low Average
Temperature 49.6°F9.8°C 28.0°F-2.2°C 37.5°F3.1°C
Dew Point 40.7°F4.8°C 28.0°F-2.2°C 34.4°F1.3°C
Winds 8.4 mph 13.5 kmh Calm Calm 5.0 mph SSW8.0 kmh SSW
Wind Gusts 14.6 mph23.5 kmh -- 8.0 mph12.9 kmh
Humidity 100% 64% 89%
Pressure 29.66 in1004.4 mb 29.41 in995.9 mb -
Precipitation 0.00 in0.0 mm - -
Hour Temp Dew Point Humidity Winds Wind Gusts Pressure Precip Precip Rate Daily Precip Total
12:06 AM 29.1°F-1.6°C 29.1°F-1.6°C 100% Calm Calm 1.5 mph2.4 kmh 29.66 in1004.4 mb 0.00 in0.0 mm 0.00 in0.0 mm 0.00 in0.0 mm
12:36 AM 29.1°F-1.6°C 29.1°F-1.6°C 100% Calm Calm 1.5 mph2.4 kmh 29.65 in1004.1 mb 0.00 in0.0 mm 0.00 in0.0 mm 0.00 in0.0 mm
01:06 AM 29.1°F-1.6°C 29.1°F-1.6°C 100% Calm Calm -- 29.64 in1003.7 mb 0.00 in0.0 mm 0.00 in0.0 mm 0.00 in0.0 mm
01:36 AM 29.1°F-1.6°C 29.1°F-1.6°C 100% Calm Calm 1.5 mph2.4 kmh 29.64 in1003.7 mb 0.00 in0.0 mm 0.00 in0.0 mm 0.00 in0.0 mm
02:06 AM 28.5°F-1.9°C 28.5°F-1.9°C 100% Calm Calm 2.8 mph4.5 kmh 29.63 in1003.4 mb 0.00 in0.0 mm 0.00 in0.0 mm 0.00 in0.0 mm
02:36 AM 28.9°F-1.7°C 28.9°F-1.7°C 100% 0.8 mph W1.3 kmh W 3.1 mph5.0 kmh 29.62 in1003.0 mb 0.00 in0.0 mm 0.00 in0.0 mm 0.00 in0.0 mm
03:06 AM 28.4°F-2.0°C 28.4°F-2.0°C 100% 0.6 mph WNW1.0 kmh WNW 4.6 mph7.4 kmh 29.61 in1002.7 mb 0.00 in0.0 mm 0.00 in0.0 mm 0.00 in0.0 mm
03:36 AM 28.0°F-2.2°C 28.0°F-2.2°C 100% 0.6 mph SW1.0 kmh SW 1.8 mph2.9 kmh 29.60 in1002.4 mb 0.00 in0.0 mm 0.00 in0.0 mm 0.00 in0.0 mm
04:06 AM 28.7°F-1.8°C 28.7°F-1.8°C 100% 1.6 mph W2.6 kmh W 3.1 mph5.0 kmh 29.59 in1002.0 mb 0.00 in0.0 mm 0.00 in0.0 mm 0.00 in0.0 mm
04:36 AM 28.7°F-1.8°C 28.7°F-1.8°C 100% 4.2 mph S6.8 kmh S 5.6 mph9.0 kmh 29.58 in1001.7 mb 0.00 in0.0 mm 0.00 in0.0 mm 0.00 in0.0 mm
05:06 AM 29.6°F-1.3°C 29.6°F-1.3°C 100% 6.1 mph S9.8 kmh S 8.4 mph13.5 kmh 29.57 in1001.4 mb 0.00 in0.0 mm 0.00 in0.0 mm 0.00 in0.0 mm
05:36 AM 30.3°F-0.9°C 30.3°F-0.9°C 100% 4.4 mph SSW7.1 kmh SSW 8.1 mph13.0 kmh 29.56 in1001.0 mb 0.00 in0.0 mm 0.00 in0.0 mm 0.00 in0.0 mm
06:06 AM 32.0°F0.0°C 32.0°F0.0°C 100% 5.7 mph SSW9.2 kmh SSW 8.1 mph13.0 kmh 29.56 in1001.0 mb 0.00 in0.0 mm 0.00 in0.0 mm 0.00 in0.0 mm
06:36 AM 32.0°F0.0°C 32.0°F0.0°C 100% 4.2 mph S6.8 kmh S 8.4 mph13.5 kmh 29.56 in1001.0 mb 0.00 in0.0 mm 0.00 in0.0 mm 0.00 in0.0 mm
07:06 AM 32.0°F0.0°C 32.0°F0.0°C 100% 2.2 mph SW3.5 kmh SW 6.5 mph10.5 kmh 29.57 in1001.4 mb 0.00 in0.0 mm 0.00 in0.0 mm 0.00 in0.0 mm
07:36 AM 32.0°F0.0°C 31.6°F-0.2°C 98% 2.8 mph SW4.5 kmh SW 5.9 mph9.5 kmh 29.57 in1001.4 mb 0.00 in0.0 mm 0.00 in0.0 mm 0.00 in0.0 mm
08:06 AM 31.6°F-0.2°C 31.6°F-0.2°C 100% 3.0 mph W4.8 kmh W 4.0 mph6.4 kmh 29.58 in1001.7 mb 0.00 in0.0 mm 0.00 in0.0 mm 0.00 in0.0 mm
08:36 AM 33.2°F0.7°C 32.3°F0.2°C 96% 0.7 mph SW1.1 kmh SW 4.6 mph7.4 kmh 29.59 in1002.0 mb 0.00 in0.0 mm 0.00 in0.0 mm 0.00 in0.0 mm
09:06 AM 34.3°F1.3°C 33.6°F0.9°C 97% Calm Calm 3.7 mph6.0 kmh 29.60 in1002.4 mb 0.00 in0.0 mm 0.00 in0.0 mm 0.00 in0.0 mm
09:36 AM 35.7°F2.1°C 33.9°F1.1°C 92% 3.4 mph SSW5.5 kmh SSW 6.5 mph10.5 kmh 29.60 in1002.4 mb 0.00 in0.0 mm 0.00 in0.0 mm 0.00 in0.0 mm
10:06 AM 38.3°F3.5°C 34.0°F1.1°C 84% 3.7 mph SW6.0 kmh SW 6.5 mph10.5 kmh 29.60 in1002.4 mb 0.00 in0.0 mm 0.00 in0.0 mm 0.00 in0.0 mm
10:36 AM 41.3°F5.2°C 35.5°F1.9°C 79% 4.5 mph S7.2 kmh S 7.5 mph12.1 kmh 29.60 in1002.4 mb 0.00 in0.0 mm 0.00 in0.0 mm 0.00 in0.0 mm
11:06 AM 42.9°F6.1°C 35.8°F2.1°C 75% 8.3 mph S13.4 kmh S 10.9 mph17.5 kmh 29.59 in1002.0 mb 0.00 in0.0 mm 0.00 in0.0 mm 0.00 in0.0 mm
11:36 AM 44.2°F6.8°C 36.8°F2.7°C 75% 4.9 mph S7.9 kmh S 9.3 mph15.0 kmh 29.59 in1002.0 mb 0.00 in0.0 mm 0.00 in0.0 mm 0.00 in0.0 mm
12:06 PM 46.2°F7.9°C 37.2°F2.9°C 70% 6.2 mph S10.0 kmh S 10.0 mph16.1 kmh 29.58 in1001.7 mb 0.00 in0.0 mm 0.00 in0.0 mm 0.00 in0.0 mm
12:36 PM 49.6°F9.8°C 38.1°F3.4°C 64% 7.6 mph SSE12.2 kmh SSE 10.0 mph16.1 kmh 29.57 in1001.4 mb 0.00 in0.0 mm 0.00 in0.0 mm 0.00 in0.0 mm
01:06 PM 49.1°F9.5°C 37.5°F3.1°C 64% 5.8 mph S9.3 kmh S 8.1 mph13.0 kmh 29.56 in1001.0 mb 0.00 in0.0 mm 0.00 in0.0 mm 0.00 in0.0 mm
01:36 PM 48.7°F9.3°C 38.8°F3.8°C 68% 4.7 mph SSE7.6 kmh SSE 9.3 mph15.0 kmh 29.55 in1000.7 mb 0.00 in0.0 mm 0.00 in0.0 mm 0.00 in0.0 mm
02:06 PM 48.9°F9.4°C 39.8°F4.3°C 70% 3.4 mph SW5.5 kmh SW 5.9 mph9.5 kmh 29.54 in1000.3 mb 0.00 in0.0 mm 0.00 in0.0 mm 0.00 in0.0 mm
02:36 PM 48.2°F9.0°C 40.7°F4.8°C 75% 5.2 mph S8.4 kmh S 8.4 mph13.5 kmh 29.53 in1000.0 mb 0.00 in0.0 mm 0.00 in0.0 mm 0.00 in0.0 mm
03:06 PM 48.2°F9.0°C 37.5°F3.1°C 66% 7.6 mph S12.2 kmh S 12.5 mph20.1 kmh 29.52 in999.7 mb 0.00 in0.0 mm 0.00 in0.0 mm 0.00 in0.0 mm
03:36 PM 45.6°F7.6°C 38.5°F3.6°C 76% 7.0 mph SSE11.3 kmh SSE 14.0 mph22.5 kmh 29.52 in999.7 mb 0.00 in0.0 mm 0.00 in0.0 mm 0.00 in0.0 mm
04:06 PM 43.3°F6.3°C 37.1°F2.8°C 78% 7.9 mph SSE12.7 kmh SSE 13.1 mph21.1 kmh 29.51 in999.3 mb 0.00 in0.0 mm 0.00 in0.0 mm 0.00 in0.0 mm
04:36 PM 42.2°F5.7°C 36.0°F2.2°C 78% 7.3 mph S11.7 kmh S 12.5 mph20.1 kmh 29.50 in999.0 mb 0.00 in0.0 mm 0.00 in0.0 mm 0.00 in0.0 mm
05:06 PM 41.7°F5.4°C 36.8°F2.7°C 82% 7.1 mph SSE11.4 kmh SSE 11.5 mph18.5 kmh 29.49 in998.6 mb 0.00 in0.0 mm 0.00 in0.0 mm 0.00 in0.0 mm
05:36 PM 41.0°F5.0°C 36.9°F2.7°C 85% 6.9 mph SSE11.1 kmh SSE 10.6 mph17.1 kmh 29.48 in998.3 mb 0.00 in0.0 mm 0.00 in0.0 mm 0.00 in0.0 mm
05:49 PM 40.8°F4.9°C 37.1°F2.8°C 86% 8.4 mph S13.5 kmh S 12.5 mph20.1 kmh 29.48 in998.3 mb 0.00 in0.0 mm 0.00 in0.0 mm 0.00 in0.0 mm
06:19 PM 40.1°F4.5°C 37.1°F2.8°C 89% 7.8 mph S12.6 kmh S 12.8 mph20.6 kmh 29.48 in998.3 mb 0.00 in0.0 mm 0.00 in0.0 mm 0.00 in0.0 mm
06:49 PM 39.9°F4.4°C 37.5°F3.1°C 91% 6.8 mph S10.9 kmh S 12.8 mph20.6 kmh 29.48 in998.3 mb 0.00 in0.0 mm 0.00 in0.0 mm 0.00 in0.0 mm
07:19 PM 39.9°F4.4°C 37.5°F3.1°C 91% 7.1 mph SSW11.4 kmh SSW 13.4 mph21.6 kmh 29.47 in998.0 mb 0.00 in0.0 mm 0.00 in0.0 mm 0.00 in0.0 mm
07:49 PM 39.0°F3.9°C 37.6°F3.1°C 94% 8.2 mph S13.2 kmh S 12.1 mph19.5 kmh 29.46 in997.6 mb 0.00 in0.0 mm 0.00 in0.0 mm 0.00 in0.0 mm
08:19 PM 39.5°F4.2°C 37.9°F3.3°C 93% 7.2 mph SSE11.6 kmh SSE 10.6 mph17.1 kmh 29.46 in997.6 mb 0.00 in0.0 mm 0.00 in0.0 mm 0.00 in0.0 mm
08:49 PM 39.5°F4.2°C 37.6°F3.1°C 92% 7.4 mph S11.9 kmh S 13.1 mph21.1 kmh 29.44 in997.0 mb 0.00 in0.0 mm 0.00 in0.0 mm 0.00 in0.0 mm
09:19 PM 39.2°F4.0°C 37.7°F3.2°C 94% 7.1 mph SSE11.4 kmh SSE 13.4 mph21.6 kmh 29.43 in996.6 mb 0.00 in0.0 mm 0.00 in0.0 mm 0.00 in0.0 mm
09:49 PM 39.0°F3.9°C 37.2°F2.9°C 93% 5.9 mph S9.5 kmh S 12.5 mph20.1 kmh 29.44 in997.0 mb 0.00 in0.0 mm 0.00 in0.0 mm 0.00 in0.0 mm
10:19 PM 38.6°F3.7°C 36.7°F2.6°C 92% 8.2 mph SSE13.2 kmh SSE 12.1 mph19.5 kmh 29.43 in996.6 mb 0.00 in0.0 mm 0.00 in0.0 mm 0.00 in0.0 mm
10:49 PM 38.4°F3.6°C 36.3°F2.4°C 91% 6.8 mph S10.9 kmh S 14.6 mph23.5 kmh 29.42 in996.3 mb 0.00 in0.0 mm 0.00 in0.0 mm 0.00 in0.0 mm
11:19 PM 37.4°F3.0°C 36.3°F2.4°C 96% 7.2 mph S11.6 kmh S 11.8 mph19.0 kmh 29.41 in995.9 mb 0.00 in0.0 mm 0.00 in0.0 mm 0.00 in0.0 mm
11:49 PM 37.5°F3.1°C 36.1°F2.3°C 94% 7.5 mph SSW12.1 kmh SSW 11.8 mph19.0 kmh 29.41 in995.9 mb 0.00 in0.0 mm 0.00 in0.0 mm 0.00 in0.0 mm